createdAt,value
2024-02-27T00:00:40.103Z,16.40
2024-02-27T00:01:39.994Z,16.40
2024-02-27T00:02:40.122Z,18.10
2024-02-27T00:03:40.084Z,17.30
2024-02-27T00:04:39.958Z,18.30
2024-02-27T00:05:40.006Z,15.60
2024-02-27T00:06:39.978Z,17.40
2024-02-27T00:07:39.955Z,15.90
2024-02-27T00:08:39.954Z,15.70
2024-02-27T00:09:39.946Z,15.10
2024-02-27T00:10:39.911Z,18.40
2024-02-27T00:11:39.983Z,15.40
2024-02-27T00:12:39.935Z,17.00
2024-02-27T00:13:39.885Z,15.30
2024-02-27T00:14:39.842Z,16.70
2024-02-27T00:15:39.883Z,18.00
2024-02-27T00:16:39.818Z,15.50
2024-02-27T00:17:39.885Z,16.20
2024-02-27T00:18:40.127Z,16.10
2024-02-27T00:19:39.859Z,15.90
2024-02-27T00:20:39.798Z,17.10
2024-02-27T00:21:39.828Z,17.60
2024-02-27T00:22:39.837Z,16.30
2024-02-27T00:23:39.740Z,15.50
2024-02-27T00:24:39.795Z,18.20
2024-02-27T00:25:39.728Z,15.60
2024-02-27T00:26:39.722Z,16.90
2024-02-27T00:27:39.801Z,14.90
2024-02-27T00:28:39.731Z,17.70
2024-02-27T00:29:39.747Z,15.60
2024-02-27T00:30:39.763Z,16.10
2024-02-27T00:31:39.665Z,15.50
2024-02-27T00:32:39.710Z,15.80
2024-02-27T00:33:39.949Z,15.40
2024-02-27T00:34:39.794Z,14.50
2024-02-27T00:35:39.713Z,16.30
2024-02-27T00:36:39.649Z,15.20
2024-02-27T00:37:39.592Z,16.00
2024-02-27T00:38:39.603Z,17.00
2024-02-27T00:39:39.578Z,13.00
2024-02-27T00:40:39.572Z,18.40
2024-02-27T00:41:39.551Z,14.60
2024-02-27T00:42:39.570Z,16.30
2024-02-27T00:43:39.545Z,14.10
2024-02-27T00:44:39.539Z,16.70
2024-02-27T00:45:39.614Z,16.30
2024-02-27T00:46:39.485Z,15.70
2024-02-27T00:47:39.493Z,15.80
2024-02-27T00:48:39.568Z,13.90
2024-02-27T00:49:39.555Z,14.10
2024-02-27T00:50:39.577Z,13.90
2024-02-27T00:51:39.458Z,15.10
2024-02-27T00:52:39.417Z,13.60
2024-02-27T00:53:39.416Z,14.90
2024-02-27T00:54:39.501Z,15.70
2024-02-27T00:55:39.378Z,13.70
2024-02-27T00:56:39.374Z,14.60
2024-02-27T00:57:39.440Z,12.40
2024-02-27T00:58:39.375Z,15.20
2024-02-27T00:59:39.392Z,15.30
2024-02-27T01:00:39.392Z,16.30
2024-02-27T01:01:39.385Z,12.80
2024-02-27T01:02:39.313Z,14.90
2024-02-27T01:03:39.341Z,14.30
2024-02-27T01:04:39.349Z,14.30
2024-02-27T01:05:39.356Z,15.80
2024-02-27T01:06:39.424Z,13.80
2024-02-27T01:07:39.261Z,15.00
2024-02-27T01:08:39.245Z,15.60
2024-02-27T01:09:39.360Z,14.50
2024-02-27T01:10:39.221Z,13.60
2024-02-27T01:11:39.245Z,13.70
2024-02-27T01:12:39.499Z,14.80
2024-02-27T01:13:39.366Z,13.70
2024-02-27T01:14:39.186Z,15.10
2024-02-27T01:15:39.229Z,15.30
2024-02-27T01:16:39.154Z,13.80
2024-02-27T01:17:39.159Z,13.50
2024-02-27T01:18:39.213Z,17.20
2024-02-27T01:19:39.171Z,17.50
2024-02-27T01:20:39.092Z,18.50
2024-02-27T01:21:39.208Z,21.10
2024-02-27T01:22:39.218Z,19.90
2024-02-27T01:23:39.217Z,21.30
2024-02-27T01:24:39.276Z,20.90
2024-02-27T01:25:39.087Z,21.30
2024-02-27T01:26:39.039Z,21.20
2024-02-27T01:27:39.068Z,19.60
2024-02-27T01:28:39.047Z,19.10
2024-02-27T01:29:39.032Z,19.20
2024-02-27T01:30:39.052Z,19.00
2024-02-27T01:31:39.024Z,21.70
2024-02-27T01:32:38.999Z,17.30
2024-02-27T01:33:39.083Z,17.40
2024-02-27T01:34:39.288Z,15.40
2024-02-27T01:35:39.111Z,17.60
2024-02-27T01:36:38.952Z,18.10
2024-02-27T01:37:38.908Z,17.50
2024-02-27T01:38:39.021Z,16.40
2024-02-27T01:39:38.986Z,20.30
2024-02-27T01:40:38.883Z,16.50
2024-02-27T01:41:38.871Z,18.80
2024-02-27T01:42:38.950Z,18.30
2024-02-27T01:43:38.872Z,19.20
2024-02-27T01:44:38.959Z,20.20
2024-02-27T01:45:38.893Z,21.10
2024-02-27T01:46:38.817Z,19.10
2024-02-27T01:47:38.850Z,26.50
2024-02-27T01:48:38.929Z,25.50
2024-02-27T01:49:38.844Z,26.90
2024-02-27T01:50:38.802Z,32.90
2024-02-27T01:51:38.795Z,28.60
2024-02-27T01:52:38.854Z,34.70
2024-02-27T01:53:38.739Z,29.20
2024-02-27T01:54:38.898Z,30.40
2024-02-27T01:55:38.815Z,31.80
2024-02-27T01:56:38.707Z,28.00
2024-02-27T01:57:38.746Z,25.40
2024-02-27T01:58:38.679Z,28.10
2024-02-27T01:59:38.694Z,28.60
2024-02-27T02:00:38.807Z,26.90
2024-02-27T02:01:38.676Z,37.40
2024-02-27T02:02:38.646Z,39.40
2024-02-27T02:03:38.785Z,38.00
2024-02-27T02:04:38.683Z,37.00
2024-02-27T02:05:38.691Z,43.80
2024-02-27T02:06:38.712Z,31.80
2024-02-27T02:07:38.620Z,50.70
2024-02-27T02:08:38.568Z,40.00
2024-02-27T02:09:38.639Z,40.00
2024-02-27T02:10:38.699Z,42.20
2024-02-27T02:11:38.616Z,47.70
2024-02-27T02:12:38.615Z,40.30
2024-02-27T02:13:38.555Z,38.20
2024-02-27T02:14:38.606Z,43.90
2024-02-27T02:15:38.560Z,40.30
2024-02-27T02:16:38.563Z,45.20
2024-02-27T02:17:38.564Z,42.60
2024-02-27T02:18:38.542Z,39.50
2024-02-27T02:19:38.510Z,31.50
2024-02-27T02:20:38.461Z,36.70
2024-02-27T02:21:38.478Z,34.70
2024-02-27T02:22:38.420Z,35.90
2024-02-27T02:23:38.409Z,41.20
2024-02-27T02:24:38.498Z,33.40
2024-02-27T02:25:38.416Z,70.30
2024-02-27T02:26:38.515Z,35.80
2024-02-27T02:27:38.417Z,35.40
2024-02-27T02:28:38.349Z,38.90
2024-02-27T02:29:38.344Z,38.60
2024-02-27T02:30:38.355Z,37.50
2024-02-27T02:31:38.336Z,52.00
2024-02-27T02:32:38.320Z,31.30
2024-02-27T02:33:38.482Z,62.00
2024-02-27T02:34:38.387Z,37.20
2024-02-27T02:35:38.310Z,36.20
2024-02-27T02:36:38.412Z,41.10
2024-02-27T02:37:38.277Z,41.60
2024-02-27T02:38:38.246Z,36.80
2024-02-27T02:39:38.309Z,43.20
2024-02-27T02:40:38.319Z,43.90
2024-02-27T02:41:38.228Z,31.40
2024-02-27T02:42:38.400Z,32.20
2024-02-27T02:43:38.164Z,30.80
2024-02-27T02:44:38.168Z,35.90
2024-02-27T02:45:38.252Z,36.10
2024-02-27T02:46:38.144Z,40.90
2024-02-27T02:47:38.209Z,31.40
2024-02-27T02:48:38.263Z,31.40
2024-02-27T02:49:41.854Z,37.50
2024-02-27T02:50:38.136Z,51.80
2024-02-27T02:51:38.130Z,32.70
2024-02-27T02:52:38.078Z,33.60
2024-02-27T02:53:38.147Z,35.20
2024-02-27T02:54:38.135Z,37.30
2024-02-27T02:55:38.051Z,31.00
2024-02-27T02:56:38.051Z,34.00
2024-02-27T02:57:38.241Z,50.50
2024-02-27T02:58:38.169Z,37.20
2024-02-27T02:59:38.020Z,37.00
2024-02-27T03:00:38.085Z,32.50
2024-02-27T03:01:38.048Z,31.10
2024-02-27T03:02:37.997Z,40.50
2024-02-27T03:03:38.077Z,33.10
2024-02-27T03:04:37.998Z,37.00
2024-02-27T03:05:38.040Z,33.90
2024-02-27T03:06:37.983Z,42.70
2024-02-27T03:07:37.935Z,35.30
2024-02-27T03:08:37.971Z,42.40
2024-02-27T03:09:37.921Z,31.70
2024-02-27T03:10:37.982Z,33.80
2024-02-27T03:11:37.897Z,33.40
2024-02-27T03:12:38.024Z,32.50
2024-02-27T03:13:37.948Z,29.60
2024-02-27T03:14:37.931Z,31.20
2024-02-27T03:15:37.874Z,28.20
2024-02-27T03:16:37.845Z,31.80
2024-02-27T03:17:37.844Z,33.50
2024-02-27T03:18:37.951Z,30.80
2024-02-27T03:19:37.824Z,36.80
2024-02-27T03:20:37.822Z,28.50
2024-02-27T03:21:37.905Z,29.40
2024-02-27T03:22:37.741Z,42.80
2024-02-27T03:23:37.737Z,36.90
2024-02-27T03:24:37.781Z,33.00
2024-02-27T03:25:37.729Z,33.40
2024-02-27T03:26:37.787Z,29.20
2024-02-27T03:27:37.740Z,33.50
2024-02-27T03:28:37.698Z,29.70
2024-02-27T03:29:37.699Z,42.00
2024-02-27T03:30:37.824Z,32.00
2024-02-27T03:31:37.662Z,38.20
2024-02-27T03:32:37.723Z,28.20
2024-02-27T03:33:37.823Z,35.20
2024-02-27T03:34:37.876Z,31.50
2024-02-27T03:35:37.693Z,34.60
2024-02-27T03:36:37.738Z,39.90
2024-02-27T03:37:37.605Z,31.00
2024-02-27T03:38:37.614Z,31.10
2024-02-27T03:39:37.945Z,36.20
2024-02-27T03:40:37.529Z,31.80
2024-02-27T03:41:37.535Z,27.40
2024-02-27T03:42:37.722Z,43.10
2024-02-27T03:43:37.552Z,29.30
2024-02-27T03:44:37.612Z,44.70
2024-02-27T03:45:37.570Z,38.90
2024-02-27T03:46:37.631Z,63.20
2024-02-27T03:47:37.502Z,53.50
2024-02-27T03:48:37.715Z,29.50
2024-02-27T03:49:37.642Z,27.90
2024-02-27T03:50:37.542Z,28.60
2024-02-27T03:51:37.514Z,32.90
2024-02-27T03:52:37.402Z,29.80
2024-02-27T03:53:37.441Z,28.20
2024-02-27T03:54:37.436Z,42.00
2024-02-27T03:55:37.379Z,60.50
2024-02-27T03:56:37.404Z,38.00
2024-02-27T03:57:37.618Z,28.00
2024-02-27T03:58:37.633Z,30.00
2024-02-27T03:59:37.332Z,42.10
2024-02-27T04:00:37.434Z,32.30
2024-02-27T04:01:37.442Z,31.10
2024-02-27T04:02:37.542Z,28.90
2024-02-27T04:03:37.348Z,28.40
2024-02-27T04:04:37.425Z,35.30
2024-02-27T04:05:37.283Z,39.10
2024-02-27T04:06:37.364Z,43.10
2024-02-27T04:07:37.254Z,32.30
2024-02-27T04:08:37.288Z,36.70
2024-02-27T04:09:37.377Z,30.00
2024-02-27T04:10:37.229Z,30.40
2024-02-27T04:11:37.193Z,37.40
2024-02-27T04:12:37.403Z,31.60
2024-02-27T04:13:37.183Z,31.80
2024-02-27T04:14:37.222Z,42.00
2024-02-27T04:15:37.196Z,38.30
2024-02-27T04:16:37.168Z,30.30
2024-02-27T04:18:37.362Z,31.50
2024-02-27T04:19:37.224Z,31.90
2024-02-27T04:20:37.126Z,37.00
2024-02-27T04:21:37.164Z,29.10
2024-02-27T04:22:37.098Z,32.60
2024-02-27T04:23:37.070Z,28.30
2024-02-27T04:24:37.140Z,25.20
2024-02-27T04:25:37.052Z,30.90
2024-02-27T04:26:37.069Z,33.30
2024-02-27T04:27:37.055Z,31.50
2024-02-27T04:28:37.032Z,33.10
2024-02-27T04:29:36.989Z,29.40
2024-02-27T04:30:37.028Z,32.80
2024-02-27T04:31:36.982Z,27.00
2024-02-27T04:32:36.971Z,28.90
2024-02-27T04:33:37.123Z,32.10
2024-02-27T04:34:37.138Z,33.90
2024-02-27T04:35:37.010Z,28.40
2024-02-27T04:36:37.012Z,28.40
2024-02-27T04:37:36.918Z,29.50
2024-02-27T04:38:36.902Z,31.20
2024-02-27T04:39:36.921Z,28.50
2024-02-27T04:40:36.898Z,29.70
2024-02-27T04:41:36.858Z,31.40
2024-02-27T04:42:36.928Z,37.30
2024-02-27T04:43:37.989Z,29.40
2024-02-27T04:44:36.867Z,29.50
2024-02-27T04:45:36.962Z,29.20
2024-02-27T04:46:36.942Z,31.30
2024-02-27T04:47:36.886Z,32.00
2024-02-27T04:48:37.071Z,27.70
2024-02-27T04:49:36.819Z,25.20
2024-02-27T04:50:36.928Z,20.40
2024-02-27T04:51:36.863Z,26.70
2024-02-27T04:52:36.726Z,31.70
2024-02-27T04:53:36.768Z,29.30
2024-02-27T04:54:36.756Z,32.20
2024-02-27T04:55:36.826Z,36.80
2024-02-27T04:56:36.705Z,65.10
2024-02-27T04:57:36.837Z,29.10
2024-02-27T04:58:36.786Z,43.10
2024-02-27T04:59:36.703Z,30.40
2024-02-27T05:00:36.780Z,29.30
2024-02-27T05:01:36.651Z,30.50
2024-02-27T05:02:36.658Z,30.10
2024-02-27T05:03:36.822Z,30.20
2024-02-27T05:04:36.703Z,28.20
2024-02-27T05:05:36.610Z,30.50
2024-02-27T05:06:36.905Z,51.90
2024-02-27T05:07:36.604Z,25.20
2024-02-27T05:08:36.618Z,44.40
2024-02-27T05:09:36.695Z,34.60
2024-02-27T05:10:36.611Z,29.00
2024-02-27T05:11:36.571Z,47.70
2024-02-27T05:12:36.668Z,45.20
2024-02-27T05:13:36.525Z,39.20
2024-02-27T05:14:36.518Z,43.80
2024-02-27T05:15:36.576Z,55.00
2024-02-27T05:16:36.501Z,55.30
2024-02-27T05:17:36.650Z,58.00
2024-02-27T05:18:36.582Z,115.00
2024-02-27T05:19:36.601Z,201.90
2024-02-27T05:20:36.457Z,130.70
2024-02-27T05:21:36.683Z,177.10
2024-02-27T05:22:36.519Z,108.00
2024-02-27T05:23:36.505Z,111.00
2024-02-27T05:24:36.544Z,54.30
2024-02-27T05:25:36.402Z,60.50
2024-02-27T05:26:36.360Z,42.90
2024-02-27T05:27:36.547Z,39.70
2024-02-27T05:28:36.331Z,38.50
2024-02-27T05:29:36.564Z,44.30
2024-02-27T05:30:36.337Z,37.10
2024-02-27T05:31:36.351Z,47.30
2024-02-27T05:32:36.363Z,45.50
2024-02-27T05:33:36.420Z,43.40
2024-02-27T05:34:36.480Z,43.30
2024-02-27T05:35:36.296Z,51.40
2024-02-27T05:36:36.418Z,40.60
2024-02-27T05:37:36.257Z,39.50
2024-02-27T05:38:36.374Z,33.70
2024-02-27T05:39:36.307Z,33.80
2024-02-27T05:40:36.267Z,29.60
2024-02-27T05:41:36.226Z,29.60
2024-02-27T05:42:36.337Z,39.80
2024-02-27T05:43:36.196Z,37.30
2024-02-27T05:44:36.245Z,34.10
2024-02-27T05:45:36.217Z,33.70
2024-02-27T05:46:36.200Z,38.60
2024-02-27T05:47:36.198Z,30.90
2024-02-27T05:48:36.146Z,35.10
2024-02-27T05:49:36.218Z,48.30
2024-02-27T05:50:36.182Z,36.40
2024-02-27T05:51:36.173Z,41.80
2024-02-27T05:52:36.109Z,40.00
2024-02-27T05:53:36.091Z,34.40
2024-02-27T05:54:36.187Z,37.10
2024-02-27T05:55:36.041Z,30.20
2024-02-27T05:56:36.029Z,28.60
2024-02-27T05:57:36.086Z,27.70
2024-02-27T05:58:36.000Z,30.90
2024-02-27T05:59:36.057Z,30.10
2024-02-27T06:00:36.043Z,33.50
2024-02-27T06:01:36.005Z,32.30
2024-02-27T06:02:35.980Z,35.40
2024-02-27T06:03:36.071Z,31.80
2024-02-27T06:04:36.002Z,32.30
2024-02-27T06:05:37.998Z,28.60
2024-02-27T06:06:36.003Z,29.40
2024-02-27T06:07:35.925Z,26.90
2024-02-27T06:08:35.918Z,24.70
2024-02-27T06:09:35.980Z,32.60
2024-02-27T06:10:35.986Z,31.00
2024-02-27T06:11:35.859Z,35.00
2024-02-27T06:12:35.960Z,30.70
2024-02-27T06:23:49.921Z,50.60
2024-02-27T06:24:19.611Z,43.30
2024-02-27T06:25:19.643Z,29.10
2024-02-27T06:26:19.665Z,36.10
2024-02-27T06:27:19.601Z,29.90
2024-02-27T06:28:19.573Z,29.90
2024-02-27T06:29:19.568Z,36.40
2024-02-27T06:30:19.591Z,33.30
2024-02-27T06:31:19.514Z,27.80
2024-02-27T06:32:19.478Z,48.90
2024-02-27T06:33:19.634Z,45.90
2024-02-27T06:34:19.534Z,31.70
2024-02-27T06:35:19.448Z,28.70
2024-02-27T06:36:26.511Z,27.80
2024-02-27T06:37:19.427Z,40.80
2024-02-27T06:38:19.416Z,36.20
2024-02-27T06:39:19.468Z,29.30
2024-02-27T06:40:19.404Z,30.60
2024-02-27T06:41:19.382Z,35.90
2024-02-27T06:42:19.514Z,33.40
2024-02-27T06:43:19.378Z,34.80
2024-02-27T06:44:19.432Z,31.10
2024-02-27T06:45:19.397Z,36.10
2024-02-27T06:46:19.322Z,31.20
2024-02-27T06:47:19.357Z,31.00
2024-02-27T06:48:19.384Z,36.50
2024-02-27T06:49:22.998Z,29.00
2024-02-27T06:50:19.281Z,32.00
2024-02-27T06:51:19.273Z,31.90
2024-02-27T06:52:19.264Z,39.90
2024-02-27T06:53:19.366Z,34.20
2024-02-27T06:54:19.564Z,33.10
2024-02-27T06:55:19.227Z,39.00
2024-02-27T06:56:19.209Z,33.10
2024-02-27T06:57:19.283Z,28.90
2024-02-27T06:58:19.334Z,28.70
2024-02-27T06:59:19.177Z,33.40
2024-02-27T07:00:19.196Z,34.70
2024-02-27T07:01:19.260Z,30.00
2024-02-27T07:02:19.179Z,35.20
2024-02-27T07:03:19.139Z,31.00
2024-02-27T07:04:19.191Z,32.40
2024-02-27T07:05:19.267Z,32.70
2024-02-27T07:06:19.332Z,34.30
2024-02-27T07:07:19.216Z,33.60
2024-02-27T07:08:19.120Z,35.40
2024-02-27T07:09:19.094Z,28.30
2024-02-27T07:10:19.085Z,34.40
2024-02-27T07:11:19.092Z,30.20
2024-02-27T07:12:19.170Z,42.80
2024-02-27T07:13:19.072Z,31.30
2024-02-27T07:14:19.126Z,40.80
2024-02-27T07:15:19.042Z,31.40
2024-02-27T07:16:18.986Z,43.70
2024-02-27T07:17:18.980Z,31.20
2024-02-27T07:18:19.174Z,27.70
2024-02-27T07:19:19.094Z,40.70
2024-02-27T07:20:18.948Z,32.10
2024-02-27T07:21:20.531Z,31.90
2024-02-27T07:22:18.926Z,37.50
2024-02-27T07:23:18.919Z,34.40
2024-02-27T07:24:19.493Z,27.50
2024-02-27T07:25:18.896Z,28.10
2024-02-27T07:26:18.882Z,26.10
2024-02-27T07:27:18.878Z,29.30
2024-02-27T07:28:24.455Z,32.40
2024-02-27T07:29:19.882Z,46.60
2024-02-27T07:30:18.996Z,38.40
2024-02-27T07:31:18.843Z,32.40
2024-02-27T07:32:18.817Z,29.10
2024-02-27T07:33:18.932Z,30.00
2024-02-27T07:34:18.930Z,28.50
2024-02-27T07:35:18.773Z,37.80
2024-02-27T07:36:18.827Z,32.50
2024-02-27T07:37:18.850Z,30.40
2024-02-27T07:38:18.742Z,37.70
2024-02-27T07:39:18.756Z,31.10
2024-02-27T07:40:18.747Z,30.20
2024-02-27T07:41:18.705Z,27.90
2024-02-27T07:42:18.739Z,32.40
2024-02-27T07:43:18.714Z,26.30
2024-02-27T07:44:18.679Z,30.60
2024-02-27T07:45:18.697Z,30.50
2024-02-27T07:46:18.792Z,26.40
2024-02-27T07:47:18.641Z,28.00
2024-02-27T07:48:18.722Z,27.10
2024-02-27T07:49:18.621Z,24.60
2024-02-27T07:50:18.660Z,26.70
2024-02-27T07:51:18.640Z,26.20
2024-02-27T07:52:18.634Z,27.90
2024-02-27T07:53:18.596Z,34.50
2024-02-27T07:54:18.616Z,28.30
2024-02-27T07:55:18.582Z,28.40
2024-02-27T07:56:18.544Z,29.90
2024-02-27T07:57:18.564Z,30.60
2024-02-27T07:58:18.541Z,32.40
2024-02-27T07:59:18.515Z,26.40
2024-02-27T08:00:18.531Z,27.30
2024-02-27T08:01:18.507Z,25.50
2024-02-27T08:02:18.596Z,25.00
2024-02-27T08:03:18.573Z,27.90
2024-02-27T08:04:18.676Z,27.90
2024-02-27T08:05:18.686Z,23.80
2024-02-27T08:06:19.544Z,29.40
2024-02-27T08:07:18.511Z,31.70
2024-02-27T08:08:18.407Z,48.90
2024-02-27T08:09:18.432Z,34.90
2024-02-27T08:10:18.452Z,29.80
2024-02-27T08:11:27.672Z,28.90
2024-02-27T08:12:26.902Z,36.80
2024-02-27T08:15:44.470Z,34.00
2024-02-27T08:16:44.271Z,30.50
2024-02-27T08:17:44.350Z,27.00
2024-02-27T08:18:44.364Z,29.20
2024-02-27T08:19:44.439Z,29.90
2024-02-27T08:20:44.232Z,30.90
2024-02-27T08:21:44.222Z,31.60
2024-02-27T08:22:44.486Z,31.10
2024-02-27T08:23:45.022Z,30.40
2024-02-27T08:24:44.210Z,31.80
2024-02-27T08:25:44.601Z,26.50
2024-02-27T08:26:47.649Z,27.40
2024-02-27T08:27:44.180Z,27.60
2024-02-27T08:28:44.115Z,30.60
2024-02-27T08:29:44.097Z,27.10
2024-02-27T08:30:44.177Z,27.40
2024-02-27T08:31:44.126Z,27.20
2024-02-27T08:32:44.150Z,29.20
2024-02-27T08:33:45.088Z,26.60
2024-02-27T08:34:44.062Z,27.20
2024-02-27T08:35:44.040Z,29.80
2024-02-27T08:36:44.185Z,29.30
2024-02-27T08:37:44.003Z,31.20
2024-02-27T08:38:43.992Z,37.80
2024-02-27T08:39:43.996Z,32.60
2024-02-27T08:40:44.028Z,46.80
2024-02-27T08:41:44.005Z,49.30
2024-02-27T08:42:44.009Z,31.90
2024-02-27T08:43:43.932Z,24.60
2024-02-27T08:44:43.934Z,24.40
2024-02-27T08:45:43.949Z,32.10
2024-02-27T08:46:43.922Z,25.80
2024-02-27T08:47:44.127Z,31.90
2024-02-27T08:48:43.978Z,39.20
2024-02-27T08:49:44.126Z,36.10
2024-02-27T08:50:43.878Z,28.40
2024-02-27T08:51:44.044Z,28.80
2024-02-27T08:52:43.834Z,33.10
2024-02-27T08:53:43.835Z,39.70
2024-02-27T08:54:43.856Z,30.60
2024-02-27T08:55:43.829Z,30.20
2024-02-27T08:56:43.795Z,28.20
2024-02-27T08:57:43.836Z,35.30
2024-02-27T08:58:43.778Z,26.00
2024-02-27T08:59:43.763Z,25.20
2024-02-27T09:00:43.889Z,25.80
2024-02-27T09:01:43.749Z,27.30
2024-02-27T09:02:43.725Z,25.80
2024-02-27T09:03:43.785Z,29.00
2024-02-27T09:04:43.763Z,27.80
2024-02-27T09:05:43.831Z,30.60
2024-02-27T09:06:43.788Z,35.30
2024-02-27T09:07:43.764Z,28.10
2024-02-27T09:08:43.694Z,35.00
2024-02-27T09:09:43.704Z,31.90
2024-02-27T09:10:43.700Z,29.30
2024-02-27T09:11:43.777Z,32.20
2024-02-27T09:12:43.696Z,27.10
2024-02-27T09:13:43.604Z,31.40
2024-02-27T09:14:43.610Z,30.10
2024-02-27T09:15:43.690Z,34.60
2024-02-27T09:16:43.716Z,33.00
2024-02-27T09:17:43.812Z,31.80
2024-02-27T09:18:43.751Z,32.20
2024-02-27T09:19:43.713Z,35.60
2024-02-27T09:20:43.647Z,35.80
2024-02-27T09:21:43.747Z,31.00
2024-02-27T09:22:43.548Z,31.50
2024-02-27T09:23:43.534Z,29.30
2024-02-27T09:24:43.556Z,34.50
2024-02-27T09:25:43.487Z,33.50
2024-02-27T09:26:43.566Z,34.20
2024-02-27T09:27:43.609Z,34.00
2024-02-27T09:28:43.439Z,36.40
2024-02-27T09:29:43.436Z,32.70
2024-02-27T09:30:43.533Z,31.80
2024-02-27T09:31:43.430Z,35.60
2024-02-27T09:32:43.491Z,32.80
2024-02-27T09:33:43.638Z,28.10
2024-02-27T09:34:43.592Z,31.10
2024-02-27T09:35:43.362Z,29.20
2024-02-27T09:36:43.466Z,29.80
2024-02-27T09:37:43.509Z,25.90
2024-02-27T09:38:43.390Z,29.00
2024-02-27T09:39:51.792Z,28.30
2024-02-27T09:40:44.329Z,29.30
2024-02-27T09:41:43.343Z,31.50
2024-02-27T09:42:43.353Z,30.50
2024-02-27T09:43:45.904Z,29.70
2024-02-27T09:44:43.338Z,24.80
2024-02-27T09:45:43.292Z,30.10
2024-02-27T09:46:43.279Z,32.40
2024-02-27T09:47:43.319Z,29.00
2024-02-27T09:48:43.508Z,30.70
2024-02-27T09:49:44.739Z,27.10
2024-02-27T09:50:43.227Z,26.90
2024-02-27T09:51:43.210Z,28.60
2024-02-27T09:52:43.184Z,27.90
2024-02-27T09:53:43.279Z,28.00
2024-02-27T09:54:46.022Z,27.20
2024-02-27T09:55:43.153Z,28.50
2024-02-27T09:56:43.214Z,31.90
2024-02-27T09:57:43.166Z,26.30
2024-02-27T09:58:43.152Z,28.70
2024-02-27T09:59:43.132Z,28.20
2024-02-27T10:00:43.330Z,26.80
2024-02-27T10:01:43.155Z,30.10
2024-02-27T10:02:43.095Z,27.10
2024-02-27T10:03:43.140Z,27.00
2024-02-27T10:04:43.047Z,28.90
2024-02-27T10:05:43.048Z,29.80
2024-02-27T10:06:43.084Z,26.80
2024-02-27T10:07:42.996Z,30.00
2024-02-27T10:08:43.003Z,30.40
2024-02-27T10:09:43.101Z,32.30
2024-02-27T10:10:43.007Z,29.90
2024-02-27T10:11:45.024Z,27.30
2024-02-27T10:12:42.950Z,26.20
2024-02-27T10:13:42.956Z,30.20
2024-02-27T10:14:43.067Z,30.50
2024-02-27T10:15:43.045Z,28.00
2024-02-27T10:16:42.903Z,27.90
2024-02-27T10:17:43.992Z,29.20
2024-02-27T10:18:43.030Z,26.80
2024-02-27T10:19:43.086Z,25.50
2024-02-27T10:20:42.902Z,28.20
2024-02-27T10:21:42.884Z,29.20
2024-02-27T10:22:43.243Z,29.60
2024-02-27T10:23:42.813Z,28.90
2024-02-27T10:24:42.841Z,27.40
2024-02-27T10:25:42.855Z,30.40
2024-02-27T10:26:42.799Z,33.80
2024-02-27T10:27:42.931Z,37.30
2024-02-27T10:28:42.764Z,31.00
2024-02-27T10:29:44.556Z,33.90
2024-02-27T10:30:42.804Z,29.00
2024-02-27T10:31:42.802Z,31.90
2024-02-27T10:32:42.805Z,33.30
2024-02-27T10:33:42.869Z,36.40
2024-02-27T10:34:42.884Z,32.50
2024-02-27T10:35:43.747Z,26.90
2024-02-27T10:36:42.714Z,32.60
2024-02-27T10:37:42.674Z,31.70
2024-02-27T10:38:42.673Z,32.80
2024-02-27T10:39:42.736Z,31.30
2024-02-27T10:40:42.623Z,34.90
2024-02-27T10:41:42.640Z,29.10
2024-02-27T10:42:42.736Z,36.60
2024-02-27T10:43:42.622Z,35.00
2024-02-27T10:44:42.577Z,34.30
2024-02-27T10:45:42.654Z,38.20
2024-02-27T10:46:42.622Z,37.80
2024-02-27T10:47:43.537Z,32.10
2024-02-27T10:48:45.184Z,38.30
2024-02-27T10:49:42.604Z,43.80
2024-02-27T10:50:42.579Z,38.50
2024-02-27T10:51:42.551Z,34.10
2024-02-27T10:52:42.583Z,44.20
2024-02-27T10:53:42.482Z,37.60
2024-02-27T10:54:42.561Z,37.10
2024-02-27T10:55:42.589Z,31.10
2024-02-27T10:56:42.450Z,36.70
2024-02-27T10:57:42.515Z,35.30
2024-02-27T10:58:42.436Z,35.80
2024-02-27T10:59:42.411Z,39.00
2024-02-27T11:00:42.507Z,34.90
2024-02-27T11:01:44.358Z,34.20
2024-02-27T11:02:42.376Z,34.70
2024-02-27T11:03:42.835Z,32.20
2024-02-27T11:04:42.464Z,35.40
2024-02-27T11:05:42.394Z,34.00
2024-02-27T11:06:42.388Z,29.30
2024-02-27T11:07:42.459Z,39.30
2024-02-27T11:08:42.335Z,40.40
2024-02-27T11:09:42.447Z,36.00
2024-02-27T11:10:42.331Z,36.00
2024-02-27T11:11:42.297Z,42.70
2024-02-27T11:12:42.296Z,56.40
2024-02-27T11:13:42.289Z,55.40
2024-02-27T11:14:42.239Z,66.70
2024-02-27T11:15:42.271Z,46.20
2024-02-27T11:16:42.260Z,50.70
2024-02-27T11:17:42.294Z,61.90
2024-02-27T11:18:42.268Z,46.80
2024-02-27T11:19:42.232Z,61.00
2024-02-27T11:20:42.281Z,71.10
2024-02-27T11:21:42.241Z,58.80
2024-02-27T11:22:42.237Z,45.80
2024-02-27T11:23:42.147Z,65.50
2024-02-27T11:24:42.328Z,53.80
2024-02-27T11:25:42.127Z,60.20
2024-02-27T11:26:42.130Z,41.40
2024-02-27T11:27:42.188Z,46.30
2024-02-27T11:28:42.092Z,47.40
2024-02-27T11:29:42.116Z,57.60
2024-02-27T11:30:42.147Z,57.10
2024-02-27T11:31:42.072Z,54.50
2024-02-27T11:32:42.063Z,58.60
2024-02-27T11:33:42.196Z,76.60
2024-02-27T11:34:42.219Z,64.70
2024-02-27T11:35:42.008Z,110.70
2024-02-27T11:36:42.176Z,85.80
2024-02-27T11:37:42.002Z,70.00
2024-02-27T11:38:41.999Z,56.90
2024-02-27T11:39:42.233Z,54.30
2024-02-27T11:40:42.010Z,48.80
2024-02-27T11:41:41.945Z,71.50
2024-02-27T11:42:42.127Z,87.40
2024-02-27T11:43:41.918Z,69.20
2024-02-27T11:44:41.933Z,72.80
2024-02-27T11:45:41.989Z,70.60
2024-02-27T11:46:41.933Z,45.60
2024-02-27T11:47:41.925Z,57.80
2024-02-27T11:48:41.927Z,80.50
2024-02-27T11:49:42.031Z,62.40
2024-02-27T11:50:41.880Z,57.70
2024-02-27T11:51:41.940Z,60.90
2024-02-27T11:52:41.856Z,57.20
2024-02-27T11:53:41.835Z,69.50
2024-02-27T11:54:41.881Z,53.20
2024-02-27T11:55:41.783Z,44.10
2024-02-27T11:56:44.094Z,35.80
2024-02-27T11:57:41.838Z,58.70
2024-02-27T11:58:41.751Z,48.50
2024-02-27T11:59:41.829Z,36.70
2024-02-27T12:00:41.796Z,74.70
2024-02-27T12:01:41.761Z,53.30
2024-02-27T12:02:41.731Z,56.30
2024-02-27T12:03:41.742Z,37.40
2024-02-27T12:04:41.726Z,73.80
2024-02-27T12:05:41.706Z,68.50
2024-02-27T12:06:41.697Z,40.60
2024-02-27T12:07:41.675Z,51.40
2024-02-27T12:08:41.642Z,60.70
2024-02-27T12:09:41.754Z,48.20
2024-02-27T12:10:41.634Z,42.30
2024-02-27T12:11:41.640Z,57.20
2024-02-27T12:12:41.835Z,39.30
2024-02-27T12:13:41.591Z,29.40
2024-02-27T12:14:41.585Z,58.50
2024-02-27T12:15:41.686Z,62.40
2024-02-27T12:16:41.570Z,54.70
2024-02-27T12:17:41.588Z,49.80
2024-02-27T12:18:43.282Z,78.00
2024-02-27T12:19:41.608Z,54.20
2024-02-27T12:20:41.542Z,37.90
2024-02-27T12:21:41.531Z,43.50
2024-02-27T12:22:41.513Z,68.60
2024-02-27T12:23:41.469Z,51.00
2024-02-27T12:24:42.326Z,46.90
2024-02-27T12:25:41.476Z,47.20
2024-02-27T12:26:41.436Z,42.50
2024-02-27T12:27:41.501Z,39.80
2024-02-27T12:28:41.417Z,37.90
2024-02-27T12:29:41.399Z,37.30
2024-02-27T12:30:41.457Z,41.30
2024-02-27T12:31:41.405Z,32.70
2024-02-27T12:32:41.468Z,55.60
2024-02-27T12:33:41.514Z,48.50
2024-02-27T12:34:41.533Z,62.90
2024-02-27T12:35:41.361Z,49.80
2024-02-27T12:36:49.301Z,37.00
2024-02-27T12:37:41.364Z,52.60
2024-02-27T12:38:41.328Z,39.80
2024-02-27T12:39:41.456Z,44.20
2024-02-27T12:40:41.344Z,45.50
2024-02-27T12:41:41.278Z,49.50
2024-02-27T12:42:41.372Z,41.70
2024-02-27T12:43:41.267Z,31.20
2024-02-27T12:44:41.237Z,33.00
2024-02-27T12:45:41.228Z,31.20
2024-02-27T12:46:41.238Z,31.90
2024-02-27T12:47:41.348Z,31.10
2024-02-27T12:48:41.316Z,30.80
2024-02-27T12:49:41.369Z,25.60
2024-02-27T12:50:41.166Z,33.30
2024-02-27T12:51:41.239Z,39.70
2024-02-27T12:52:42.016Z,35.10
2024-02-27T12:53:41.151Z,35.90
2024-02-27T12:54:41.152Z,33.30
2024-02-27T12:55:41.276Z,49.90
2024-02-27T12:56:41.113Z,35.80
2024-02-27T12:57:41.119Z,31.80
2024-02-27T12:58:41.090Z,29.20
2024-02-27T12:59:41.066Z,37.30
2024-02-27T13:00:41.169Z,36.00
2024-02-27T13:01:41.214Z,45.00
2024-02-27T13:02:41.038Z,34.40
2024-02-27T13:03:41.158Z,32.90
2024-02-27T13:04:41.037Z,30.70
2024-02-27T13:05:41.033Z,32.70